sensor_id;sensor_type;location;lat;lon;timestamp;P1;durP1;ratioP1;P2;durP2;ratioP2
39956;SDS011;48483;44.640;7.494;2023-02-01T00:00:11;11.40;;;8.27;;
39956;SDS011;48483;44.640;7.494;2023-02-01T00:02:39;11.35;;;7.60;;
39956;SDS011;48483;44.640;7.494;2023-02-01T00:05:07;12.02;;;8.75;;
39956;SDS011;48483;44.640;7.494;2023-02-01T00:07:34;13.45;;;8.65;;
39956;SDS011;48483;44.640;7.494;2023-02-01T00:10:00;14.90;;;8.68;;
39956;SDS011;48483;44.640;7.494;2023-02-01T00:12:29;13.13;;;8.40;;
39956;SDS011;48483;44.640;7.494;2023-02-01T00:14:55;14.07;;;8.77;;
39956;SDS011;48483;44.640;7.494;2023-02-01T00:17:22;13.32;;;8.52;;
39956;SDS011;48483;44.640;7.494;2023-02-01T00:19:50;13.90;;;9.77;;
39956;SDS011;48483;44.640;7.494;2023-02-01T00:22:17;11.80;;;8.52;;
39956;SDS011;48483;44.640;7.494;2023-02-01T00:24:43;13.80;;;9.88;;
39956;SDS011;48483;44.640;7.494;2023-02-01T00:27:10;12.25;;;8.20;;
39956;SDS011;48483;44.640;7.494;2023-02-01T00:29:38;12.52;;;9.02;;
39956;SDS011;48483;44.640;7.494;2023-02-01T00:32:05;13.23;;;9.07;;
39956;SDS011;48483;44.640;7.494;2023-02-01T00:34:31;11.38;;;8.90;;
39956;SDS011;48483;44.640;7.494;2023-02-01T00:36:59;12.57;;;9.30;;
39956;SDS011;48483;44.640;7.494;2023-02-01T00:39:26;13.00;;;9.73;;
39956;SDS011;48483;44.640;7.494;2023-02-01T00:41:52;11.77;;;8.80;;
39956;SDS011;48483;44.640;7.494;2023-02-01T00:44:19;14.02;;;10.57;;
39956;SDS011;48483;44.640;7.494;2023-02-01T00:46:45;12.48;;;9.52;;
39956;SDS011;48483;44.640;7.494;2023-02-01T00:49:12;15.93;;;9.80;;
39956;SDS011;48483;44.640;7.494;2023-02-01T00:51:38;16.95;;;10.45;;
39956;SDS011;48483;44.640;7.494;2023-02-01T00:54:06;17.65;;;11.77;;
39956;SDS011;48483;44.640;7.494;2023-02-01T00:56:33;15.68;;;10.77;;
39956;SDS011;48483;44.640;7.494;2023-02-01T00:58:59;16.45;;;11.65;;
39956;SDS011;48483;44.640;7.494;2023-02-01T01:01:26;14.95;;;11.38;;
39956;SDS011;48483;44.640;7.494;2023-02-01T01:03:55;15.35;;;11.90;;
39956;SDS011;48483;44.640;7.494;2023-02-01T01:06:23;14.32;;;10.50;;
39956;SDS011;48483;44.640;7.494;2023-02-01T01:08:52;16.40;;;12.07;;
39956;SDS011;48483;44.640;7.494;2023-02-01T01:11:22;13.88;;;11.20;;
39956;SDS011;48483;44.640;7.494;2023-02-01T01:13:50;16.40;;;12.40;;
39956;SDS011;48483;44.640;7.494;2023-02-01T01:16:19;17.52;;;10.95;;
39956;SDS011;48483;44.640;7.494;2023-02-01T01:18:46;17.27;;;10.85;;
39956;SDS011;48483;44.640;7.494;2023-02-01T01:21:14;16.77;;;11.43;;
39956;SDS011;48483;44.640;7.494;2023-02-01T01:23:42;16.42;;;11.30;;
39956;SDS011;48483;44.640;7.494;2023-02-01T01:26:09;16.85;;;10.52;;
39956;SDS011;48483;44.640;7.494;2023-02-01T01:28:40;15.80;;;11.20;;
39956;SDS011;48483;44.640;7.494;2023-02-01T01:31:07;15.88;;;10.80;;
39956;SDS011;48483;44.640;7.494;2023-02-01T01:33:34;13.93;;;10.30;;
39956;SDS011;48483;44.640;7.494;2023-02-01T01:36:00;14.23;;;10.68;;
39956;SDS011;48483;44.640;7.494;2023-02-01T01:38:27;16.52;;;11.60;;
39956;SDS011;48483;44.640;7.494;2023-02-01T01:40:54;14.68;;;10.23;;
39956;SDS011;48483;44.640;7.494;2023-02-01T01:43:20;17.85;;;11.45;;
39956;SDS011;48483;44.640;7.494;2023-02-01T01:45:50;12.48;;;10.15;;
39956;SDS011;48483;44.640;7.494;2023-02-01T01:48:20;14.43;;;9.98;;
39956;SDS011;48483;44.640;7.494;2023-02-01T01:50:51;17.33;;;11.15;;
39956;SDS011;48483;44.640;7.494;2023-02-01T01:53:24;16.95;;;11.23;;
39956;SDS011;48483;44.640;7.494;2023-02-01T01:55:54;18.10;;;12.52;;
39956;SDS011;48483;44.640;7.494;2023-02-01T01:58:23;19.20;;;13.77;;
39956;SDS011;48483;44.640;7.494;2023-02-01T02:00:53;18.38;;;12.93;;
39956;SDS011;48483;44.640;7.494;2023-02-01T02:03:23;19.80;;;13.50;;
39956;SDS011;48483;44.640;7.494;2023-02-01T02:05:53;17.15;;;13.80;;
39956;SDS011;48483;44.640;7.494;2023-02-01T02:08:23;16.77;;;12.32;;
39956;SDS011;48483;44.640;7.494;2023-02-01T02:10:52;16.80;;;12.00;;
39956;SDS011;48483;44.640;7.494;2023-02-01T02:13:25;20.02;;;12.50;;
39956;SDS011;48483;44.640;7.494;2023-02-01T02:15:57;16.20;;;11.82;;
39956;SDS011;48483;44.640;7.494;2023-02-01T02:18:44;13.13;;;8.88;;
39956;SDS011;48483;44.640;7.494;2023-02-01T02:21:23;14.93;;;11.45;;
39956;SDS011;48483;44.640;7.494;2023-02-01T02:24:23;15.02;;;11.27;;
39956;SDS011;48483;44.640;7.494;2023-02-01T02:27:19;15.65;;;11.30;;
39956;SDS011;48483;44.640;7.494;2023-02-01T02:30:10;13.23;;;9.63;;
39956;SDS011;48483;44.640;7.494;2023-02-01T02:33:21;17.80;;;11.05;;
39956;SDS011;48483;44.640;7.494;2023-02-01T02:36:08;14.00;;;9.60;;
39956;SDS011;48483;44.640;7.494;2023-02-01T02:38:41;12.98;;;9.15;;
39956;SDS011;48483;44.640;7.494;2023-02-01T02:41:13;14.52;;;9.57;;
39956;SDS011;48483;44.640;7.494;2023-02-01T02:44:07;14.65;;;9.90;;
39956;SDS011;48483;44.640;7.494;2023-02-01T02:46:59;15.65;;;11.65;;
39956;SDS011;48483;44.640;7.494;2023-02-01T02:49:51;18.13;;;11.32;;
39956;SDS011;48483;44.640;7.494;2023-02-01T02:52:45;17.83;;;11.88;;
39956;SDS011;48483;44.640;7.494;2023-02-01T02:55:35;17.77;;;10.93;;
39956;SDS011;48483;44.640;7.494;2023-02-01T02:58:04;16.80;;;11.07;;
39956;SDS011;48483;44.640;7.494;2023-02-01T03:00:51;15.65;;;11.25;;
39956;SDS011;48483;44.640;7.494;2023-02-01T03:03:39;16.95;;;11.80;;
39956;SDS011;48483;44.640;7.494;2023-02-01T03:06:26;15.57;;;11.48;;
39956;SDS011;48483;44.640;7.494;2023-02-01T03:08:54;17.15;;;11.77;;
39956;SDS011;48483;44.640;7.494;2023-02-01T03:14:11;17.02;;;11.27;;
39956;SDS011;48483;44.640;7.494;2023-02-01T03:16:42;18.13;;;12.82;;
39956;SDS011;48483;44.640;7.494;2023-02-01T03:19:15;18.00;;;12.65;;
39956;SDS011;48483;44.640;7.494;2023-02-01T03:21:47;16.77;;;11.98;;
39956;SDS011;48483;44.640;7.494;2023-02-01T03:24:17;20.00;;;13.18;;
39956;SDS011;48483;44.640;7.494;2023-02-01T03:26:48;19.48;;;13.02;;
39956;SDS011;48483;44.640;7.494;2023-02-01T03:29:21;20.58;;;13.70;;
39956;SDS011;48483;44.640;7.494;2023-02-01T03:31:55;19.55;;;12.95;;
39956;SDS011;48483;44.640;7.494;2023-02-01T03:34:22;19.10;;;12.20;;
39956;SDS011;48483;44.640;7.494;2023-02-01T03:36:50;21.52;;;14.20;;
39956;SDS011;48483;44.640;7.494;2023-02-01T03:39:22;22.30;;;14.07;;
39956;SDS011;48483;44.640;7.494;2023-02-01T03:41:56;18.40;;;12.23;;
39956;SDS011;48483;44.640;7.494;2023-02-01T03:44:26;16.20;;;12.48;;
39956;SDS011;48483;44.640;7.494;2023-02-01T03:46:59;15.35;;;11.82;;
39956;SDS011;48483;44.640;7.494;2023-02-01T03:49:30;16.02;;;11.82;;
39956;SDS011;48483;44.640;7.494;2023-02-01T03:52:04;16.40;;;11.55;;
39956;SDS011;48483;44.640;7.494;2023-02-01T03:54:34;16.25;;;11.68;;
39956;SDS011;48483;44.640;7.494;2023-02-01T03:57:03;17.10;;;12.45;;
39956;SDS011;48483;44.640;7.494;2023-02-01T03:59:34;15.60;;;10.68;;
39956;SDS011;48483;44.640;7.494;2023-02-01T04:04:31;14.40;;;9.90;;
39956;SDS011;48483;44.640;7.494;2023-02-01T04:06:58;14.25;;;10.25;;
39956;SDS011;48483;44.640;7.494;2023-02-01T04:09:26;16.83;;;12.18;;
39956;SDS011;48483;44.640;7.494;2023-02-01T04:11:52;13.93;;;9.50;;
39956;SDS011;48483;44.640;7.494;2023-02-01T04:14:19;17.10;;;10.95;;
39956;SDS011;48483;44.640;7.494;2023-02-01T04:16:45;12.50;;;9.07;;
39956;SDS011;48483;44.640;7.494;2023-02-01T04:19:12;16.65;;;9.43;;
39956;SDS011;48483;44.640;7.494;2023-02-01T04:21:39;14.25;;;9.27;;
39956;SDS011;48483;44.640;7.494;2023-02-01T04:24:05;13.48;;;9.75;;
39956;SDS011;48483;44.640;7.494;2023-02-01T04:26:34;16.92;;;8.73;;
39956;SDS011;48483;44.640;7.494;2023-02-01T04:29:00;13.95;;;10.02;;
39956;SDS011;48483;44.640;7.494;2023-02-01T04:31:27;13.55;;;9.68;;
39956;SDS011;48483;44.640;7.494;2023-02-01T04:33:54;14.82;;;9.20;;
39956;SDS011;48483;44.640;7.494;2023-02-01T04:36:23;13.35;;;9.18;;
39956;SDS011;48483;44.640;7.494;2023-02-01T04:38:50;16.38;;;9.98;;
39956;SDS011;48483;44.640;7.494;2023-02-01T04:41:17;14.43;;;10.85;;
39956;SDS011;48483;44.640;7.494;2023-02-01T04:43:49;18.40;;;11.50;;
39956;SDS011;48483;44.640;7.494;2023-02-01T04:46:18;16.98;;;12.07;;
39956;SDS011;48483;44.640;7.494;2023-02-01T04:48:44;18.27;;;12.73;;
39956;SDS011;48483;44.640;7.494;2023-02-01T04:51:11;19.80;;;12.57;;
39956;SDS011;48483;44.640;7.494;2023-02-01T04:53:38;24.67;;;12.52;;
39956;SDS011;48483;44.640;7.494;2023-02-01T04:56:05;16.23;;;11.93;;
39956;SDS011;48483;44.640;7.494;2023-02-01T04:58:32;17.17;;;11.70;;
39956;SDS011;48483;44.640;7.494;2023-02-01T05:01:01;17.95;;;12.43;;
39956;SDS011;48483;44.640;7.494;2023-02-01T05:03:30;19.33;;;11.50;;
39956;SDS011;48483;44.640;7.494;2023-02-01T05:05:56;16.17;;;10.52;;
39956;SDS011;48483;44.640;7.494;2023-02-01T05:08:23;15.82;;;10.85;;
39956;SDS011;48483;44.640;7.494;2023-02-01T05:10:51;16.05;;;10.98;;
39956;SDS011;48483;44.640;7.494;2023-02-01T05:13:17;16.23;;;11.05;;
39956;SDS011;48483;44.640;7.494;2023-02-01T05:16:14;13.88;;;10.48;;
39956;SDS011;48483;44.640;7.494;2023-02-01T05:18:41;14.80;;;9.32;;
39956;SDS011;48483;44.640;7.494;2023-02-01T05:21:08;17.48;;;9.20;;
39956;SDS011;48483;44.640;7.494;2023-02-01T05:23:34;14.27;;;9.35;;
39956;SDS011;48483;44.640;7.494;2023-02-01T05:26:21;11.27;;;8.15;;
39956;SDS011;48483;44.640;7.494;2023-02-01T05:28:47;16.90;;;9.18;;
39956;SDS011;48483;44.640;7.494;2023-02-01T05:31:15;15.13;;;9.57;;
39956;SDS011;48483;44.640;7.494;2023-02-01T05:33:42;12.55;;;8.52;;
39956;SDS011;48483;44.640;7.494;2023-02-01T05:36:08;16.65;;;9.25;;
39956;SDS011;48483;44.640;7.494;2023-02-01T05:38:35;18.15;;;10.52;;
39956;SDS011;48483;44.640;7.494;2023-02-01T05:41:01;17.77;;;9.05;;
39956;SDS011;48483;44.640;7.494;2023-02-01T05:43:28;13.73;;;9.50;;
39956;SDS011;48483;44.640;7.494;2023-02-01T05:45:55;13.65;;;9.32;;
39956;SDS011;48483;44.640;7.494;2023-02-01T05:48:22;15.32;;;9.70;;
39956;SDS011;48483;44.640;7.494;2023-02-01T05:50:49;13.05;;;8.73;;
39956;SDS011;48483;44.640;7.494;2023-02-01T05:53:16;26.45;;;9.63;;
39956;SDS011;48483;44.640;7.494;2023-02-01T05:55:42;13.43;;;9.68;;
39956;SDS011;48483;44.640;7.494;2023-02-01T05:58:09;12.75;;;8.73;;
39956;SDS011;48483;44.640;7.494;2023-02-01T06:00:35;12.75;;;8.27;;
39956;SDS011;48483;44.640;7.494;2023-02-01T06:03:02;12.55;;;8.95;;
39956;SDS011;48483;44.640;7.494;2023-02-01T06:05:30;11.90;;;8.27;;
39956;SDS011;48483;44.640;7.494;2023-02-01T06:07:56;12.50;;;8.00;;
39956;SDS011;48483;44.640;7.494;2023-02-01T06:10:24;14.35;;;7.25;;
39956;SDS011;48483;44.640;7.494;2023-02-01T06:12:50;14.63;;;7.85;;
39956;SDS011;48483;44.640;7.494;2023-02-01T06:15:17;13.77;;;8.30;;
39956;SDS011;48483;44.640;7.494;2023-02-01T06:17:44;13.75;;;7.47;;
39956;SDS011;48483;44.640;7.494;2023-02-01T06:20:12;12.30;;;7.90;;
39956;SDS011;48483;44.640;7.494;2023-02-01T06:22:41;12.07;;;8.40;;
39956;SDS011;48483;44.640;7.494;2023-02-01T06:25:09;13.38;;;7.93;;
39956;SDS011;48483;44.640;7.494;2023-02-01T06:27:36;15.27;;;8.00;;
39956;SDS011;48483;44.640;7.494;2023-02-01T06:30:03;13.32;;;8.20;;
39956;SDS011;48483;44.640;7.494;2023-02-01T06:32:30;18.55;;;8.02;;
39956;SDS011;48483;44.640;7.494;2023-02-01T06:34:57;10.85;;;7.47;;
39956;SDS011;48483;44.640;7.494;2023-02-01T06:37:24;16.65;;;7.55;;
39956;SDS011;48483;44.640;7.494;2023-02-01T06:39:57;14.40;;;8.50;;
39956;SDS011;48483;44.640;7.494;2023-02-01T06:42:24;14.45;;;8.50;;
39956;SDS011;48483;44.640;7.494;2023-02-01T06:44:51;18.90;;;9.18;;
39956;SDS011;48483;44.640;7.494;2023-02-01T06:47:17;21.40;;;8.85;;
39956;SDS011;48483;44.640;7.494;2023-02-01T06:49:44;17.20;;;8.00;;
39956;SDS011;48483;44.640;7.494;2023-02-01T06:52:11;22.42;;;9.07;;
39956;SDS011;48483;44.640;7.494;2023-02-01T06:54:37;22.40;;;8.25;;
39956;SDS011;48483;44.640;7.494;2023-02-01T06:57:05;17.80;;;7.45;;
39956;SDS011;48483;44.640;7.494;2023-02-01T06:59:32;18.73;;;8.25;;
39956;SDS011;48483;44.640;7.494;2023-02-01T07:01:58;20.17;;;8.18;;
39956;SDS011;48483;44.640;7.494;2023-02-01T07:04:25;16.05;;;8.80;;
39956;SDS011;48483;44.640;7.494;2023-02-01T07:06:51;18.58;;;7.35;;
39956;SDS011;48483;44.640;7.494;2023-02-01T07:09:18;14.02;;;7.45;;
39956;SDS011;48483;44.640;7.494;2023-02-01T07:11:44;27.00;;;9.55;;
39956;SDS011;48483;44.640;7.494;2023-02-01T07:14:12;14.52;;;9.10;;
39956;SDS011;48483;44.640;7.494;2023-02-01T07:16:39;15.90;;;8.40;;
39956;SDS011;48483;44.640;7.494;2023-02-01T07:19:05;23.52;;;9.70;;
39956;SDS011;48483;44.640;7.494;2023-02-01T07:21:32;21.40;;;10.23;;
39956;SDS011;48483;44.640;7.494;2023-02-01T07:23:58;20.17;;;9.13;;
39956;SDS011;48483;44.640;7.494;2023-02-01T07:26:25;16.23;;;9.23;;
39956;SDS011;48483;44.640;7.494;2023-02-01T07:28:52;20.92;;;9.90;;
39956;SDS011;48483;44.640;7.494;2023-02-01T07:31:20;22.02;;;9.63;;
39956;SDS011;48483;44.640;7.494;2023-02-01T07:33:47;19.90;;;8.98;;
39956;SDS011;48483;44.640;7.494;2023-02-01T07:36:17;21.30;;;8.60;;
39956;SDS011;48483;44.640;7.494;2023-02-01T07:38:44;16.80;;;8.63;;
39956;SDS011;48483;44.640;7.494;2023-02-01T07:41:12;23.33;;;8.65;;
39956;SDS011;48483;44.640;7.494;2023-02-01T07:43:39;19.58;;;8.10;;
39956;SDS011;48483;44.640;7.494;2023-02-01T07:46:06;15.90;;;7.10;;
39956;SDS011;48483;44.640;7.494;2023-02-01T07:48:34;17.98;;;8.15;;
39956;SDS011;48483;44.640;7.494;2023-02-01T07:51:01;20.25;;;8.52;;
39956;SDS011;48483;44.640;7.494;2023-02-01T07:53:30;28.90;;;9.68;;
39956;SDS011;48483;44.640;7.494;2023-02-01T07:55:57;23.50;;;10.98;;
39956;SDS011;48483;44.640;7.494;2023-02-01T07:58:24;14.40;;;9.35;;
39956;SDS011;48483;44.640;7.494;2023-02-01T08:00:52;16.10;;;9.38;;
39956;SDS011;48483;44.640;7.494;2023-02-01T08:03:38;23.02;;;9.95;;
39956;SDS011;48483;44.640;7.494;2023-02-01T08:06:05;24.73;;;11.10;;
39956;SDS011;48483;44.640;7.494;2023-02-01T08:08:32;23.02;;;12.82;;
39956;SDS011;48483;44.640;7.494;2023-02-01T08:10:59;23.70;;;14.13;;
39956;SDS011;48483;44.640;7.494;2023-02-01T08:13:26;22.85;;;14.82;;
39956;SDS011;48483;44.640;7.494;2023-02-01T08:15:57;24.95;;;14.60;;
39956;SDS011;48483;44.640;7.494;2023-02-01T08:18:24;22.95;;;15.85;;
39956;SDS011;48483;44.640;7.494;2023-02-01T08:20:51;27.90;;;15.40;;
39956;SDS011;48483;44.640;7.494;2023-02-01T08:23:18;20.83;;;12.95;;
39956;SDS011;48483;44.640;7.494;2023-02-01T08:25:45;26.23;;;13.98;;
39956;SDS011;48483;44.640;7.494;2023-02-01T08:28:12;19.88;;;10.70;;
39956;SDS011;48483;44.640;7.494;2023-02-01T08:30:39;19.13;;;12.40;;
39956;SDS011;48483;44.640;7.494;2023-02-01T08:33:07;21.65;;;11.98;;
39956;SDS011;48483;44.640;7.494;2023-02-01T08:35:35;24.52;;;12.63;;
39956;SDS011;48483;44.640;7.494;2023-02-01T08:38:04;18.70;;;11.32;;
39956;SDS011;48483;44.640;7.494;2023-02-01T08:40:31;16.58;;;11.25;;
39956;SDS011;48483;44.640;7.494;2023-02-01T08:42:57;20.10;;;11.85;;
39956;SDS011;48483;44.640;7.494;2023-02-01T08:45:26;21.35;;;12.25;;
39956;SDS011;48483;44.640;7.494;2023-02-01T08:47:55;22.88;;;12.80;;
39956;SDS011;48483;44.640;7.494;2023-02-01T08:50:22;25.33;;;12.05;;
39956;SDS011;48483;44.640;7.494;2023-02-01T08:52:50;20.13;;;12.27;;
39956;SDS011;48483;44.640;7.494;2023-02-01T08:55:18;30.20;;;14.02;;
39956;SDS011;48483;44.640;7.494;2023-02-01T08:57:46;21.30;;;13.98;;
39956;SDS011;48483;44.640;7.494;2023-02-01T09:00:13;23.30;;;15.02;;
39956;SDS011;48483;44.640;7.494;2023-02-01T09:02:42;23.08;;;17.30;;
39956;SDS011;48483;44.640;7.494;2023-02-01T09:05:08;25.27;;;17.00;;
39956;SDS011;48483;44.640;7.494;2023-02-01T09:07:36;24.10;;;15.95;;
39956;SDS011;48483;44.640;7.494;2023-02-01T09:10:03;28.85;;;16.95;;
39956;SDS011;48483;44.640;7.494;2023-02-01T09:12:32;22.40;;;15.52;;
39956;SDS011;48483;44.640;7.494;2023-02-01T09:14:59;23.80;;;15.23;;
39956;SDS011;48483;44.640;7.494;2023-02-01T09:17:27;18.30;;;13.13;;
39956;SDS011;48483;44.640;7.494;2023-02-01T09:19:54;19.88;;;13.23;;
39956;SDS011;48483;44.640;7.494;2023-02-01T09:22:21;20.55;;;13.52;;
39956;SDS011;48483;44.640;7.494;2023-02-01T09:24:47;23.48;;;14.57;;
39956;SDS011;48483;44.640;7.494;2023-02-01T09:27:14;27.45;;;14.55;;
39956;SDS011;48483;44.640;7.494;2023-02-01T09:29:42;16.58;;;12.15;;
39956;SDS011;48483;44.640;7.494;2023-02-01T09:32:08;21.88;;;13.57;;
39956;SDS011;48483;44.640;7.494;2023-02-01T09:34:35;16.85;;;12.98;;
39956;SDS011;48483;44.640;7.494;2023-02-01T09:37:02;21.65;;;11.18;;
39956;SDS011;48483;44.640;7.494;2023-02-01T09:39:28;18.92;;;12.52;;
39956;SDS011;48483;44.640;7.494;2023-02-01T09:41:57;18.35;;;12.60;;
39956;SDS011;48483;44.640;7.494;2023-02-01T09:44:32;17.50;;;11.55;;
39956;SDS011;48483;44.640;7.494;2023-02-01T09:47:24;19.40;;;12.10;;
39956;SDS011;48483;44.640;7.494;2023-02-01T09:49:54;17.08;;;10.73;;
39956;SDS011;48483;44.640;7.494;2023-02-01T09:52:25;15.43;;;11.18;;
39956;SDS011;48483;44.640;7.494;2023-02-01T09:54:58;14.38;;;10.50;;
39956;SDS011;48483;44.640;7.494;2023-02-01T09:57:31;12.80;;;8.82;;
39956;SDS011;48483;44.640;7.494;2023-02-01T10:00:09;15.93;;;9.68;;
39956;SDS011;48483;44.640;7.494;2023-02-01T10:02:43;17.08;;;10.05;;
39956;SDS011;48483;44.640;7.494;2023-02-01T10:05:12;16.13;;;10.20;;
39956;SDS011;48483;44.640;7.494;2023-02-01T10:10:11;14.88;;;10.52;;
39956;SDS011;48483;44.640;7.494;2023-02-01T10:15:46;16.63;;;12.50;;
39956;SDS011;48483;44.640;7.494;2023-02-01T10:18:27;17.10;;;11.07;;
39956;SDS011;48483;44.640;7.494;2023-02-01T10:21:02;18.95;;;12.05;;
39956;SDS011;48483;44.640;7.494;2023-02-01T10:23:41;17.98;;;12.68;;
39956;SDS011;48483;44.640;7.494;2023-02-01T10:26:21;24.35;;;11.80;;
39956;SDS011;48483;44.640;7.494;2023-02-01T10:28:49;17.40;;;11.57;;
39956;SDS011;48483;44.640;7.494;2023-02-01T10:31:17;13.48;;;10.43;;
39956;SDS011;48483;44.640;7.494;2023-02-01T10:33:46;19.55;;;11.73;;
39956;SDS011;48483;44.640;7.494;2023-02-01T10:36:16;14.18;;;10.77;;
39956;SDS011;48483;44.640;7.494;2023-02-01T10:38:46;17.10;;;9.93;;
39956;SDS011;48483;44.640;7.494;2023-02-01T10:41:13;13.25;;;8.93;;
39956;SDS011;48483;44.640;7.494;2023-02-01T10:43:41;12.50;;;8.80;;
39956;SDS011;48483;44.640;7.494;2023-02-01T10:46:09;12.93;;;9.27;;
39956;SDS011;48483;44.640;7.494;2023-02-01T10:48:36;11.50;;;7.70;;
39956;SDS011;48483;44.640;7.494;2023-02-01T10:51:06;13.45;;;7.18;;
39956;SDS011;48483;44.640;7.494;2023-02-01T10:53:39;9.88;;;7.30;;
39956;SDS011;48483;44.640;7.494;2023-02-01T10:56:10;10.85;;;7.50;;
39956;SDS011;48483;44.640;7.494;2023-02-01T10:58:42;12.70;;;6.82;;
39956;SDS011;48483;44.640;7.494;2023-02-01T11:01:13;10.25;;;7.30;;
39956;SDS011;48483;44.640;7.494;2023-02-01T11:03:44;10.23;;;6.38;;
39956;SDS011;48483;44.640;7.494;2023-02-01T11:06:19;11.20;;;7.68;;
39956;SDS011;48483;44.640;7.494;2023-02-01T11:08:52;13.20;;;7.07;;
39956;SDS011;48483;44.640;7.494;2023-02-01T11:11:20;11.90;;;7.38;;
39956;SDS011;48483;44.640;7.494;2023-02-01T11:13:51;11.77;;;6.53;;
39956;SDS011;48483;44.640;7.494;2023-02-01T11:16:19;28.83;;;7.35;;
39956;SDS011;48483;44.640;7.494;2023-02-01T11:18:46;11.02;;;7.60;;
39956;SDS011;48483;44.640;7.494;2023-02-01T11:21:21;11.05;;;7.35;;
39956;SDS011;48483;44.640;7.494;2023-02-01T11:23:48;11.05;;;7.63;;
39956;SDS011;48483;44.640;7.494;2023-02-01T11:26:19;10.70;;;7.45;;
39956;SDS011;48483;44.640;7.494;2023-02-01T11:28:51;10.30;;;6.60;;
39956;SDS011;48483;44.640;7.494;2023-02-01T11:31:19;16.75;;;6.88;;
39956;SDS011;48483;44.640;7.494;2023-02-01T11:33:49;11.20;;;7.05;;
39956;SDS011;48483;44.640;7.494;2023-02-01T11:36:18;12.27;;;7.47;;
39956;SDS011;48483;44.640;7.494;2023-02-01T11:38:51;11.50;;;7.03;;
39956;SDS011;48483;44.640;7.494;2023-02-01T11:41:21;11.48;;;7.68;;
39956;SDS011;48483;44.640;7.494;2023-02-01T11:43:52;13.90;;;9.15;;
39956;SDS011;48483;44.640;7.494;2023-02-01T11:46:22;13.07;;;9.52;;
39956;SDS011;48483;44.640;7.494;2023-02-01T11:48:53;13.57;;;10.55;;
39956;SDS011;48483;44.640;7.494;2023-02-01T11:51:25;15.27;;;10.85;;
39956;SDS011;48483;44.640;7.494;2023-02-01T11:54:10;15.50;;;10.88;;
39956;SDS011;48483;44.640;7.494;2023-02-01T11:57:00;16.55;;;11.57;;
39956;SDS011;48483;44.640;7.494;2023-02-01T11:59:48;14.82;;;12.63;;
39956;SDS011;48483;44.640;7.494;2023-02-01T12:02:49;17.88;;;11.93;;
39956;SDS011;48483;44.640;7.494;2023-02-01T12:05:38;16.52;;;13.40;;
39956;SDS011;48483;44.640;7.494;2023-02-01T12:08:17;18.33;;;13.37;;
39956;SDS011;48483;44.640;7.494;2023-02-01T12:10:58;17.88;;;13.30;;
39956;SDS011;48483;44.640;7.494;2023-02-01T12:13:40;18.48;;;13.80;;
39956;SDS011;48483;44.640;7.494;2023-02-01T12:16:17;20.83;;;13.18;;
39956;SDS011;48483;44.640;7.494;2023-02-01T12:24:57;17.17;;;13.80;;
39956;SDS011;48483;44.640;7.494;2023-02-01T12:27:49;17.85;;;12.80;;
39956;SDS011;48483;44.640;7.494;2023-02-01T12:30:49;17.42;;;13.07;;
39956;SDS011;48483;44.640;7.494;2023-02-01T12:33:33;18.23;;;12.65;;
39956;SDS011;48483;44.640;7.494;2023-02-01T12:36:12;16.02;;;13.05;;
39956;SDS011;48483;44.640;7.494;2023-02-01T12:38:44;17.10;;;11.60;;
39956;SDS011;48483;44.640;7.494;2023-02-01T12:41:25;14.85;;;11.73;;
39956;SDS011;48483;44.640;7.494;2023-02-01T12:44:07;13.15;;;10.73;;
39956;SDS011;48483;44.640;7.494;2023-02-01T12:46:38;13.65;;;11.13;;
39956;SDS011;48483;44.640;7.494;2023-02-01T12:49:11;14.85;;;11.52;;
39956;SDS011;48483;44.640;7.494;2023-02-01T12:51:41;13.70;;;10.65;;
39956;SDS011;48483;44.640;7.494;2023-02-01T12:54:13;17.88;;;10.13;;
39956;SDS011;48483;44.640;7.494;2023-02-01T12:56:46;12.45;;;10.15;;
39956;SDS011;48483;44.640;7.494;2023-02-01T12:59:36;16.55;;;11.73;;
39956;SDS011;48483;44.640;7.494;2023-02-01T13:02:08;13.98;;;11.40;;
39956;SDS011;48483;44.640;7.494;2023-02-01T13:04:44;14.15;;;11.23;;
39956;SDS011;48483;44.640;7.494;2023-02-01T13:07:21;19.10;;;11.20;;
39956;SDS011;48483;44.640;7.494;2023-02-01T13:09:53;15.85;;;10.32;;
39956;SDS011;48483;44.640;7.494;2023-02-01T13:12:25;14.00;;;10.77;;
39956;SDS011;48483;44.640;7.494;2023-02-01T13:15:00;15.82;;;11.50;;
39956;SDS011;48483;44.640;7.494;2023-02-01T13:17:31;17.05;;;11.50;;
39956;SDS011;48483;44.640;7.494;2023-02-01T13:19:59;15.23;;;10.35;;
39956;SDS011;48483;44.640;7.494;2023-02-01T13:22:31;15.55;;;9.43;;
39956;SDS011;48483;44.640;7.494;2023-02-01T13:25:01;13.07;;;9.63;;
39956;SDS011;48483;44.640;7.494;2023-02-01T13:27:30;15.95;;;9.38;;
39956;SDS011;48483;44.640;7.494;2023-02-01T13:30:00;14.80;;;9.25;;
39956;SDS011;48483;44.640;7.494;2023-02-01T13:32:43;15.25;;;8.77;;
39956;SDS011;48483;44.640;7.494;2023-02-01T13:35:41;13.88;;;9.40;;
39956;SDS011;48483;44.640;7.494;2023-02-01T13:41:15;9.05;;;6.93;;
39956;SDS011;48483;44.640;7.494;2023-02-01T13:43:53;11.07;;;8.05;;
39956;SDS011;48483;44.640;7.494;2023-02-01T13:46:22;16.58;;;7.30;;
39956;SDS011;48483;44.640;7.494;2023-02-01T13:48:50;11.70;;;7.53;;
39956;SDS011;48483;44.640;7.494;2023-02-01T13:53:58;10.52;;;7.78;;
39956;SDS011;48483;44.640;7.494;2023-02-01T13:56:24;11.40;;;7.75;;
39956;SDS011;48483;44.640;7.494;2023-02-01T13:58:52;10.90;;;8.00;;
39956;SDS011;48483;44.640;7.494;2023-02-01T14:07:17;11.30;;;7.68;;
39956;SDS011;48483;44.640;7.494;2023-02-01T14:09:45;9.82;;;7.53;;
39956;SDS011;48483;44.640;7.494;2023-02-01T14:15:16;12.55;;;8.38;;
39956;SDS011;48483;44.640;7.494;2023-02-01T14:17:50;14.57;;;8.13;;
39956;SDS011;48483;44.640;7.494;2023-02-01T14:23:13;10.85;;;8.60;;
39956;SDS011;48483;44.640;7.494;2023-02-01T14:25:47;12.63;;;8.35;;
39956;SDS011;48483;44.640;7.494;2023-02-01T14:28:28;24.92;;;14.07;;
39956;SDS011;48483;44.640;7.494;2023-02-01T14:30:56;20.50;;;14.50;;
39956;SDS011;48483;44.640;7.494;2023-02-01T14:33:26;16.42;;;12.10;;
39956;SDS011;48483;44.640;7.494;2023-02-01T14:35:58;13.30;;;10.40;;
39956;SDS011;48483;44.640;7.494;2023-02-01T14:38:31;13.80;;;9.05;;
39956;SDS011;48483;44.640;7.494;2023-02-01T14:44:25;11.15;;;9.30;;
39956;SDS011;48483;44.640;7.494;2023-02-01T14:49:59;15.98;;;10.40;;
39956;SDS011;48483;44.640;7.494;2023-02-01T14:52:45;13.40;;;10.05;;
39956;SDS011;48483;44.640;7.494;2023-02-01T14:55:15;13.98;;;11.32;;
39956;SDS011;48483;44.640;7.494;2023-02-01T14:57:48;19.23;;;11.27;;
39956;SDS011;48483;44.640;7.494;2023-02-01T15:00:20;14.30;;;9.93;;
39956;SDS011;48483;44.640;7.494;2023-02-01T15:02:49;16.50;;;10.93;;
39956;SDS011;48483;44.640;7.494;2023-02-01T15:05:25;12.57;;;9.65;;
39956;SDS011;48483;44.640;7.494;2023-02-01T15:07:57;16.15;;;9.90;;
39956;SDS011;48483;44.640;7.494;2023-02-01T15:10:26;17.05;;;10.73;;
39956;SDS011;48483;44.640;7.494;2023-02-01T15:12:55;14.73;;;9.50;;
39956;SDS011;48483;44.640;7.494;2023-02-01T15:15:22;15.32;;;10.52;;
39956;SDS011;48483;44.640;7.494;2023-02-01T15:17:50;13.68;;;9.55;;
39956;SDS011;48483;44.640;7.494;2023-02-01T15:20:19;12.95;;;9.27;;
39956;SDS011;48483;44.640;7.494;2023-02-01T15:22:55;13.57;;;9.15;;
39956;SDS011;48483;44.640;7.494;2023-02-01T15:25:23;12.95;;;10.15;;
39956;SDS011;48483;44.640;7.494;2023-02-01T15:27:52;13.05;;;8.68;;
39956;SDS011;48483;44.640;7.494;2023-02-01T15:30:19;12.98;;;9.32;;